Osceola, WI

3:47 PM CST on November 20, 2019 (GMT -0600)
Simenstad Municipal

Weather History for KOEO - October, 2019

Change the Weather History Date:

Wednesday, October 23, 2019

  Actual Average (WUND) Record (WUND)
Temperature  
Mean Temperature 40 °F -  
Max Temperature 43 °F - - (-1)
Min Temperature 36 °F - - (-1)
Degree Days  
Heating Degree Days 26    
Moisture  
Dew Point 33 °F    
Average Humidity 76    
Maximum Humidity 87    
Minimum Humidity 65    
Precipitation  
Precipitation 0.00 in - - ()
Sea Level Pressure  
Sea Level Pressure 29.91 in    
Wind  
Wind Speed 9 mph (WNW)    
Max Wind Speed 15 mph    
Max Gust Speed 24 mph    
Visibility 10 miles    
Events      
Averages and records for this station are not official NWS values.
T = Trace of Precipitation, MM = Missing Value Source: NWS Daily Summary

Daily Weather History Graph

Daily Weather History Graph

Search for Another Location

Airport or City:

Astronomy

Oct. 23, 2019 Rise Set
Actual Time 7:37 AM CDT 6:12 PM CDT
Civil Twilight 7:07 AM CDT 6:42 PM CDT
Nautical Twilight 6:32 AM CDT 7:16 PM CDT
Astronomical Twilight 5:58 AM CDT 7:50 PM CDT
Moon 1:35 AM CDT (10/23) 4:21 PM CDT (10/23)
Length of Visible Light 11h 35m
Length of Day
10h 35m
Waning Crescent, 26% of the Moon is Illuminated
Oct 23
Waning Crescent
Oct 27
New
Nov 4
First Quarter
Nov 12
Full
Nov 19
Last Quarter

Hourly Weather History & Observations

Time (CDT) Temp. Windchill Dew Point Humidity Pressure Visibility Wind Dir Wind Speed Gust Speed Precip Events Conditions
12:35 AM 41.2 °F 33.7 °F 33.8 °F 75% 29.71 in 10.0 mi WNW 13.8 mph 21.9 mph N/A   Overcast
12:55 AM 41.2 °F 35.5 °F 33.4 °F 74% 29.71 in 10.0 mi West 9.2 mph 19.6 mph N/A   Overcast
1:15 AM 41.2 °F 35.0 °F 33.8 °F 75% 29.71 in 10.0 mi West 10.4 mph 20.7 mph N/A   Overcast
1:35 AM 40.6 °F 32.7 °F 33.1 °F 74% 29.71 in 10.0 mi West 15.0 mph 24.2 mph N/A   Overcast
1:55 AM 40.5 °F 33.6 °F 33.1 °F 75% 29.71 in 10.0 mi West 11.5 mph - N/A   Overcast
2:35 AM 40.3 °F 35.5 °F 33.3 °F 76% 29.72 in 10.0 mi WNW 6.9 mph - N/A   Overcast
2:55 AM 40.1 °F 34.1 °F 33.3 °F 77% 29.73 in 10.0 mi West 9.2 mph - N/A   Overcast
3:15 AM 40.1 °F 34.7 °F 33.3 °F 77% 29.73 in 10.0 mi West 8.1 mph - N/A   Overcast
3:35 AM 39.9 °F 34.5 °F 33.8 °F 79% 29.74 in 10.0 mi West 8.1 mph - N/A   Overcast
3:55 AM 39.7 °F 34.3 °F 33.8 °F 79% 29.75 in 10.0 mi West 8.1 mph - N/A   Overcast
4:15 AM 39.4 °F 32.7 °F 33.8 °F 80% 29.76 in 10.0 mi WSW 10.4 mph - N/A   Overcast
4:35 AM 39.2 °F 32.5 °F 33.3 °F 79% 29.76 in 10.0 mi West 10.4 mph 17.3 mph N/A   Overcast
4:55 AM 39.0 °F 32.8 °F 33.6 °F 81% 29.77 in 10.0 mi West 9.2 mph - N/A   Overcast
5:15 AM 38.7 °F 30.9 °F 33.8 °F 83% 29.78 in 10.0 mi WSW 12.7 mph - N/A   Overcast
5:35 AM 37.9 °F 30.5 °F 33.3 °F 83% 29.79 in 10.0 mi WSW 11.5 mph - N/A   Overcast
5:55 AM 37.6 °F 29.6 °F 33.3 °F 84% 29.79 in 10.0 mi WSW 12.7 mph 17.3 mph N/A   Overcast
6:15 AM 37.4 °F 31.4 °F 33.1 °F 84% 29.79 in 10.0 mi West 8.1 mph - N/A   Overcast
6:35 AM 37.4 °F 30.8 °F 32.9 °F 84% 29.80 in 10.0 mi West 9.2 mph - N/A   Overcast
6:55 AM 37.4 °F 30.8 °F 32.9 °F 84% 29.80 in 10.0 mi West 9.2 mph - N/A   Overcast
7:15 AM 37.4 °F 29.3 °F 32.5 °F 83% 29.81 in 10.0 mi West 12.7 mph - N/A   Overcast
7:35 AM 37.4 °F 30.3 °F 32.0 °F 81% 29.81 in 10.0 mi West 10.4 mph - N/A   Overcast
7:55 AM 37.4 °F 30.8 °F 32.2 °F 81% 29.82 in 10.0 mi West 9.2 mph - N/A   Overcast
8:35 AM 37.4 °F 30.8 °F 32.9 °F 84% 29.85 in 10.0 mi WSW 9.2 mph - N/A   Overcast
8:55 AM 36.7 °F 29.4 °F 33.1 °F 87% 29.85 in 10.0 mi WSW 10.4 mph - N/A   Overcast
9:35 AM 37.4 °F 31.4 °F 33.3 °F 85% 29.87 in 10.0 mi WSW 8.1 mph - N/A   Overcast
9:55 AM 38.3 °F 32.5 °F 33.1 °F 81% 29.87 in 10.0 mi West 8.1 mph - N/A   Overcast
10:15 AM 39.2 °F 35.0 °F 33.3 °F 79% 29.87 in 10.0 mi West 5.8 mph - N/A   Overcast
10:35 AM 40.3 °F 36.3 °F 33.6 °F 77% 29.87 in 10.0 mi West 5.8 mph - N/A   Overcast
10:55 AM 40.3 °F 33.9 °F 33.8 °F 78% 29.88 in 10.0 mi WSW 10.4 mph - N/A   Overcast
11:15 AM 40.6 °F 34.8 °F 34.0 °F 77% 29.90 in 10.0 mi West 9.2 mph - N/A   Overcast
11:55 AM 41.4 °F 35.2 °F 33.4 °F 73% 29.91 in 10.0 mi West 10.4 mph - N/A   Overcast
12:15 PM 41.4 °F 36.8 °F 33.1 °F 72% 29.91 in 10.0 mi WNW 6.9 mph - N/A   Overcast
12:35 PM 41.9 °F 36.3 °F 33.3 °F 71% 29.91 in 10.0 mi West 9.2 mph - N/A   Overcast
12:55 PM 41.7 °F 36.1 °F 32.9 °F 71% 29.91 in 10.0 mi WNW 9.2 mph - N/A   Overcast
1:15 PM 41.9 °F 36.9 °F 32.5 °F 69% 29.92 in 10.0 mi NW 8.1 mph - N/A   Overcast
1:35 PM 41.4 °F 37.6 °F 32.7 °F 71% 29.92 in 10.0 mi NW 5.8 mph - N/A   Overcast
1:55 PM 41.0 °F 38.0 °F 32.2 °F 71% 29.92 in 10.0 mi WNW 4.6 mph - N/A   Overcast
2:15 PM 41.4 °F 36.2 °F 33.1 °F 72% 29.93 in 10.0 mi WNW 8.1 mph - N/A   Overcast
2:35 PM 41.9 °F 39.0 °F 32.9 °F 70% 29.93 in 10.0 mi NW 4.6 mph - N/A   Overcast
2:55 PM 41.9 °F 38.2 °F 33.1 °F 71% 29.94 in 10.0 mi NNW 5.8 mph - N/A   Overcast
3:15 PM 42.1 °F 37.1 °F 32.4 °F 68% 29.94 in 10.0 mi NNW 8.1 mph - N/A   Overcast
3:35 PM 42.4 °F 38.1 °F 32.7 °F 68% 29.95 in 10.0 mi NW 6.9 mph - N/A   Overcast
3:55 PM 42.3 °F 40.5 °F 32.7 °F 69% 29.96 in 10.0 mi NW 3.5 mph - N/A   Overcast
4:15 PM 42.8 °F 40.1 °F 32.4 °F 67% 29.96 in 10.0 mi WNW 4.6 mph - N/A   Overcast
4:35 PM 43.0 °F 40.3 °F 32.5 °F 67% 29.97 in 10.0 mi NW 4.6 mph - N/A   Overcast
4:55 PM 43.0 °F 38.8 °F 32.5 °F 67% 29.98 in 10.0 mi NNW 6.9 mph - N/A   Overcast
5:15 PM 43.0 °F 38.8 °F 32.0 °F 65% 29.99 in 10.0 mi NW 6.9 mph - N/A   Overcast
5:35 PM 42.8 °F 38.6 °F 32.0 °F 66% 30.00 in 10.0 mi NW 6.9 mph - N/A   Overcast
5:55 PM 42.3 °F 39.4 °F 32.0 °F 67% 30.00 in 10.0 mi NNW 4.6 mph - N/A   Mostly Cloudy
6:15 PM 41.0 °F 38.0 °F 32.0 °F 70% 30.01 in 10.0 mi NNW 4.6 mph - N/A   Scattered Clouds
6:35 PM 40.1 °F 36.9 °F 32.0 °F 73% 30.02 in 10.0 mi NW 4.6 mph - N/A   Clear
6:55 PM 39.2 °F 35.9 °F 32.0 °F 75% 30.04 in 10.0 mi NW 4.6 mph - N/A   Clear
7:15 PM 38.8 °F 35.4 °F 32.0 °F 76% 30.05 in 10.0 mi NW 4.6 mph - N/A   Clear
7:35 PM 38.8 °F 35.4 °F 32.0 °F 76% 30.06 in 10.0 mi WNW 4.6 mph - N/A   Clear
7:55 PM 38.1 °F 35.7 °F 32.0 °F 79% 30.07 in 10.0 mi West 3.5 mph - N/A   Clear
8:15 PM 37.2 °F 33.6 °F 32.0 °F 81% 30.07 in 10.0 mi West 4.6 mph - N/A   Clear
8:35 PM 37.6 °F 34.0 °F 32.0 °F 80% 30.08 in 10.0 mi West 4.6 mph - N/A   Clear
8:55 PM 36.9 °F 33.1 °F 32.0 °F 83% 30.09 in 10.0 mi West 4.6 mph - N/A   Scattered Clouds
9:15 PM 38.3 °F 33.2 °F 32.0 °F 78% 30.10 in 10.0 mi WNW 6.9 mph - N/A   Overcast
9:35 PM 39.4 °F 34.5 °F 32.5 °F 76% 30.10 in 10.0 mi WNW 6.9 mph - N/A   Overcast
9:55 PM 39.6 °F 34.0 °F 32.5 °F 76% 30.11 in 10.0 mi WNW 8.1 mph - N/A   Overcast
10:15 PM 38.8 °F 33.2 °F 32.4 °F 78% 30.11 in 10.0 mi West 8.1 mph - N/A   Overcast
10:35 PM 39.2 °F 34.2 °F 32.7 °F 78% 30.12 in 10.0 mi West 6.9 mph - N/A   Overcast
10:55 PM 39.6 °F 34.0 °F 32.4 °F 75% 30.13 in 10.0 mi WNW 8.1 mph - N/A   Overcast
11:15 PM 40.1 °F 35.3 °F 32.4 °F 74% 30.13 in 10.0 mi WNW 6.9 mph - N/A   Overcast
11:35 PM 40.1 °F 34.1 °F 32.4 °F 74% 30.14 in 10.0 mi WNW 9.2 mph - N/A   Overcast
11:55 PM 40.1 °F 35.3 °F 32.5 °F 74% 30.15 in 10.0 mi West 6.9 mph - N/A   Overcast